sensor_id;sensor_type;location;lat;lon;timestamp;P1;durP1;ratioP1;P2;durP2;ratioP2
72087;SDS011;59961;50.232;8.616;2023-09-08T00:09:15;8.13;;;3.70;;
72087;SDS011;59961;50.232;8.616;2023-09-08T00:21:53;8.05;;;3.50;;
72087;SDS011;59961;50.232;8.616;2023-09-08T00:24:18;17.57;;;4.77;;
72087;SDS011;59961;50.232;8.616;2023-09-08T01:08:04;7.22;;;3.20;;
72087;SDS011;59961;50.232;8.616;2023-09-08T01:49:15;6.32;;;3.10;;
72087;SDS011;59961;50.232;8.616;2023-09-08T02:30:26;9.07;;;3.58;;
72087;SDS011;59961;50.232;8.616;2023-09-08T03:24:32;10.60;;;4.15;;
72087;SDS011;59961;50.232;8.616;2023-09-08T04:09:25;6.45;;;3.00;;
72087;SDS011;59961;50.232;8.616;2023-09-08T04:14:27;6.83;;;3.50;;
72087;SDS011;59961;50.232;8.616;2023-09-08T04:27:13;6.47;;;3.50;;
72087;SDS011;59961;50.232;8.616;2023-09-08T04:58:03;10.50;;;4.30;;
72087;SDS011;59961;50.232;8.616;2023-09-08T05:00:28;8.53;;;4.07;;
72087;SDS011;59961;50.232;8.616;2023-09-08T05:02:53;9.20;;;3.67;;
72087;SDS011;59961;50.232;8.616;2023-09-08T05:05:18;9.32;;;4.43;;
72087;SDS011;59961;50.232;8.616;2023-09-08T05:07:43;7.50;;;3.93;;
72087;SDS011;59961;50.232;8.616;2023-09-08T05:10:10;8.52;;;4.18;;
72087;SDS011;59961;50.232;8.616;2023-09-08T05:12:35;7.87;;;3.93;;
72087;SDS011;59961;50.232;8.616;2023-09-08T05:15:01;8.20;;;3.97;;
72087;SDS011;59961;50.232;8.616;2023-09-08T05:17:31;9.15;;;4.20;;
72087;SDS011;59961;50.232;8.616;2023-09-08T05:19:56;10.63;;;5.37;;
72087;SDS011;59961;50.232;8.616;2023-09-08T05:22:22;8.13;;;4.32;;
72087;SDS011;59961;50.232;8.616;2023-09-08T05:24:47;8.07;;;3.97;;
72087;SDS011;59961;50.232;8.616;2023-09-08T05:27:12;8.07;;;4.33;;
72087;SDS011;59961;50.232;8.616;2023-09-08T05:29:37;8.07;;;3.60;;
72087;SDS011;59961;50.232;8.616;2023-09-08T05:32:02;8.98;;;4.50;;
72087;SDS011;59961;50.232;8.616;2023-09-08T05:34:27;8.40;;;4.20;;
72087;SDS011;59961;50.232;8.616;2023-09-08T05:36:53;8.57;;;4.40;;
72087;SDS011;59961;50.232;8.616;2023-09-08T05:39:18;10.32;;;4.50;;
72087;SDS011;59961;50.232;8.616;2023-09-08T05:41:44;7.70;;;4.03;;
72087;SDS011;59961;50.232;8.616;2023-09-08T05:44:09;7.20;;;4.20;;
72087;SDS011;59961;50.232;8.616;2023-09-08T05:46:34;7.57;;;4.40;;
72087;SDS011;59961;50.232;8.616;2023-09-08T05:49:00;9.07;;;3.80;;
72087;SDS011;59961;50.232;8.616;2023-09-08T05:51:25;9.02;;;4.32;;
72087;SDS011;59961;50.232;8.616;2023-09-08T05:53:50;8.33;;;4.40;;
72087;SDS011;59961;50.232;8.616;2023-09-08T05:56:17;8.73;;;4.03;;
72087;SDS011;59961;50.232;8.616;2023-09-08T05:58:43;10.60;;;4.45;;
72087;SDS011;59961;50.232;8.616;2023-09-08T06:01:08;8.27;;;4.10;;
72087;SDS011;59961;50.232;8.616;2023-09-08T06:03:33;7.93;;;3.75;;
72087;SDS011;59961;50.232;8.616;2023-09-08T06:05:58;7.83;;;4.07;;
72087;SDS011;59961;50.232;8.616;2023-09-08T06:08:24;8.57;;;4.30;;
72087;SDS011;59961;50.232;8.616;2023-09-08T06:10:49;7.37;;;3.87;;
72087;SDS011;59961;50.232;8.616;2023-09-08T06:13:14;8.80;;;3.65;;
72087;SDS011;59961;50.232;8.616;2023-09-08T06:15:39;8.10;;;4.05;;
72087;SDS011;59961;50.232;8.616;2023-09-08T06:18:05;7.27;;;4.10;;
72087;SDS011;59961;50.232;8.616;2023-09-08T06:20:30;7.60;;;3.97;;
72087;SDS011;59961;50.232;8.616;2023-09-08T06:22:55;7.73;;;4.70;;
72087;SDS011;59961;50.232;8.616;2023-09-08T06:25:20;7.63;;;4.10;;
72087;SDS011;59961;50.232;8.616;2023-09-08T06:27:46;8.50;;;4.43;;
72087;SDS011;59961;50.232;8.616;2023-09-08T06:30:11;8.82;;;4.25;;
72087;SDS011;59961;50.232;8.616;2023-09-08T06:32:38;8.60;;;4.03;;
72087;SDS011;59961;50.232;8.616;2023-09-08T06:35:03;7.57;;;3.93;;
72087;SDS011;59961;50.232;8.616;2023-09-08T06:37:29;9.43;;;4.10;;
72087;SDS011;59961;50.232;8.616;2023-09-08T06:39:54;6.17;;;3.83;;
72087;SDS011;59961;50.232;8.616;2023-09-08T06:42:19;7.40;;;4.10;;
72087;SDS011;59961;50.232;8.616;2023-09-08T06:44:44;7.43;;;4.28;;
72087;SDS011;59961;50.232;8.616;2023-09-08T06:47:09;8.68;;;4.25;;
72087;SDS011;59961;50.232;8.616;2023-09-08T06:49:35;11.93;;;3.80;;
72087;SDS011;59961;50.232;8.616;2023-09-08T06:52:00;6.32;;;3.72;;
72087;SDS011;59961;50.232;8.616;2023-09-08T06:54:25;6.75;;;3.70;;
72087;SDS011;59961;50.232;8.616;2023-09-08T06:56:50;7.80;;;4.03;;
72087;SDS011;59961;50.232;8.616;2023-09-08T06:59:15;7.60;;;3.80;;
72087;SDS011;59961;50.232;8.616;2023-09-08T07:01:42;7.20;;;3.97;;
72087;SDS011;59961;50.232;8.616;2023-09-08T07:04:07;6.50;;;3.77;;
72087;SDS011;59961;50.232;8.616;2023-09-08T07:06:32;7.63;;;3.78;;
72087;SDS011;59961;50.232;8.616;2023-09-08T07:08:57;6.50;;;3.47;;
72087;SDS011;59961;50.232;8.616;2023-09-08T07:11:22;7.50;;;3.92;;
72087;SDS011;59961;50.232;8.616;2023-09-08T07:13:47;10.47;;;3.63;;
72087;SDS011;59961;50.232;8.616;2023-09-08T07:16:13;5.80;;;3.50;;
72087;SDS011;59961;50.232;8.616;2023-09-08T07:18:38;10.52;;;3.70;;
72087;SDS011;59961;50.232;8.616;2023-09-08T07:21:03;10.23;;;3.93;;
72087;SDS011;59961;50.232;8.616;2023-09-08T07:23:29;6.90;;;3.90;;
72087;SDS011;59961;50.232;8.616;2023-09-08T07:25:54;9.50;;;4.13;;
72087;SDS011;59961;50.232;8.616;2023-09-08T07:28:19;6.73;;;3.20;;
72087;SDS011;59961;50.232;8.616;2023-09-08T07:30:44;6.47;;;3.53;;
72087;SDS011;59961;50.232;8.616;2023-09-08T07:33:09;6.57;;;3.77;;
72087;SDS011;59961;50.232;8.616;2023-09-08T07:35:38;8.00;;;3.65;;
72087;SDS011;59961;50.232;8.616;2023-09-08T07:38:03;16.80;;;4.00;;
72087;SDS011;59961;50.232;8.616;2023-09-08T07:40:29;7.23;;;3.87;;
72087;SDS011;59961;50.232;8.616;2023-09-08T07:42:54;7.03;;;3.50;;
72087;SDS011;59961;50.232;8.616;2023-09-08T07:45:19;6.53;;;3.38;;
72087;SDS011;59961;50.232;8.616;2023-09-08T07:47:44;6.93;;;3.73;;
72087;SDS011;59961;50.232;8.616;2023-09-08T07:50:17;7.47;;;3.83;;
72087;SDS011;59961;50.232;8.616;2023-09-08T07:52:43;7.57;;;3.90;;
72087;SDS011;59961;50.232;8.616;2023-09-08T07:55:08;6.13;;;3.50;;
72087;SDS011;59961;50.232;8.616;2023-09-08T07:57:33;7.55;;;3.20;;
72087;SDS011;59961;50.232;8.616;2023-09-08T07:59:59;8.10;;;3.90;;
72087;SDS011;59961;50.232;8.616;2023-09-08T08:02:24;6.80;;;4.10;;
72087;SDS011;59961;50.232;8.616;2023-09-08T08:04:49;6.00;;;3.38;;
72087;SDS011;59961;50.232;8.616;2023-09-08T08:07:14;11.20;;;3.97;;
72087;SDS011;59961;50.232;8.616;2023-09-08T08:09:39;6.47;;;3.70;;
72087;SDS011;59961;50.232;8.616;2023-09-08T08:12:04;6.47;;;3.80;;
72087;SDS011;59961;50.232;8.616;2023-09-08T08:14:30;6.20;;;3.63;;
72087;SDS011;59961;50.232;8.616;2023-09-08T08:16:55;8.30;;;3.75;;
72087;SDS011;59961;50.232;8.616;2023-09-08T08:19:20;6.27;;;3.77;;
72087;SDS011;59961;50.232;8.616;2023-09-08T08:21:45;7.43;;;3.83;;
72087;SDS011;59961;50.232;8.616;2023-09-08T08:24:11;7.07;;;3.60;;
72087;SDS011;59961;50.232;8.616;2023-09-08T08:26:36;6.17;;;3.50;;
72087;SDS011;59961;50.232;8.616;2023-09-08T08:29:01;6.95;;;3.70;;
72087;SDS011;59961;50.232;8.616;2023-09-08T08:31:26;5.77;;;3.63;;
72087;SDS011;59961;50.232;8.616;2023-09-08T08:33:51;7.03;;;3.70;;
72087;SDS011;59961;50.232;8.616;2023-09-08T08:36:16;8.80;;;3.67;;
72087;SDS011;59961;50.232;8.616;2023-09-08T08:38:41;6.50;;;3.15;;
72087;SDS011;59961;50.232;8.616;2023-09-08T08:41:07;6.15;;;3.70;;
72087;SDS011;59961;50.232;8.616;2023-09-08T08:43:32;7.60;;;3.83;;
72087;SDS011;59961;50.232;8.616;2023-09-08T08:45:57;6.07;;;3.33;;
72087;SDS011;59961;50.232;8.616;2023-09-08T08:48:23;6.95;;;3.78;;
72087;SDS011;59961;50.232;8.616;2023-09-08T08:50:49;6.75;;;3.75;;
72087;SDS011;59961;50.232;8.616;2023-09-08T08:53:16;7.78;;;3.95;;
72087;SDS011;59961;50.232;8.616;2023-09-08T08:55:42;7.72;;;4.00;;
72087;SDS011;59961;50.232;8.616;2023-09-08T08:58:07;9.10;;;3.80;;
72087;SDS011;59961;50.232;8.616;2023-09-08T09:00:36;9.73;;;4.10;;
72087;SDS011;59961;50.232;8.616;2023-09-08T09:03:04;7.85;;;3.67;;
72087;SDS011;59961;50.232;8.616;2023-09-08T09:05:30;7.63;;;3.70;;
72087;SDS011;59961;50.232;8.616;2023-09-08T09:07:57;5.90;;;3.60;;
72087;SDS011;59961;50.232;8.616;2023-09-08T09:10:22;8.50;;;3.95;;
72087;SDS011;59961;50.232;8.616;2023-09-08T09:12:48;6.43;;;3.40;;
72087;SDS011;59961;50.232;8.616;2023-09-08T09:15:13;8.80;;;3.63;;
72087;SDS011;59961;50.232;8.616;2023-09-08T09:17:38;6.27;;;3.70;;
72087;SDS011;59961;50.232;8.616;2023-09-08T09:20:18;7.00;;;4.00;;
72087;SDS011;59961;50.232;8.616;2023-09-08T09:22:45;6.97;;;4.07;;
72087;SDS011;59961;50.232;8.616;2023-09-08T09:25:18;7.17;;;4.07;;
72087;SDS011;59961;50.232;8.616;2023-09-08T09:27:49;6.82;;;3.97;;
72087;SDS011;59961;50.232;8.616;2023-09-08T09:30:14;7.70;;;3.77;;
72087;SDS011;59961;50.232;8.616;2023-09-08T09:32:39;8.30;;;3.95;;
72087;SDS011;59961;50.232;8.616;2023-09-08T09:35:04;7.97;;;3.97;;
72087;SDS011;59961;50.232;8.616;2023-09-08T09:37:30;8.33;;;3.93;;
72087;SDS011;59961;50.232;8.616;2023-09-08T09:39:55;6.43;;;4.00;;
72087;SDS011;59961;50.232;8.616;2023-09-08T09:42:20;7.77;;;4.70;;
72087;SDS011;59961;50.232;8.616;2023-09-08T09:44:47;6.97;;;3.75;;
72087;SDS011;59961;50.232;8.616;2023-09-08T09:47:12;10.50;;;4.00;;
72087;SDS011;59961;50.232;8.616;2023-09-08T09:49:41;7.60;;;3.60;;
72087;SDS011;59961;50.232;8.616;2023-09-08T09:52:07;7.43;;;3.60;;
72087;SDS011;59961;50.232;8.616;2023-09-08T09:54:32;5.90;;;3.50;;
72087;SDS011;59961;50.232;8.616;2023-09-08T09:56:57;7.90;;;3.80;;
72087;SDS011;59961;50.232;8.616;2023-09-08T09:59:22;7.00;;;3.47;;
72087;SDS011;59961;50.232;8.616;2023-09-08T10:01:48;8.00;;;3.77;;
72087;SDS011;59961;50.232;8.616;2023-09-08T10:04:13;6.78;;;3.50;;
72087;SDS011;59961;50.232;8.616;2023-09-08T10:06:40;6.32;;;3.92;;
72087;SDS011;59961;50.232;8.616;2023-09-08T10:09:05;6.87;;;3.70;;
72087;SDS011;59961;50.232;8.616;2023-09-08T10:11:47;7.93;;;4.05;;
72087;SDS011;59961;50.232;8.616;2023-09-08T10:14:14;8.77;;;4.03;;
72087;SDS011;59961;50.232;8.616;2023-09-08T10:16:39;5.97;;;3.80;;
72087;SDS011;59961;50.232;8.616;2023-09-08T10:19:07;6.70;;;3.35;;
72087;SDS011;59961;50.232;8.616;2023-09-08T10:21:33;6.05;;;3.97;;
72087;SDS011;59961;50.232;8.616;2023-09-08T10:24:14;7.18;;;3.90;;
72087;SDS011;59961;50.232;8.616;2023-09-08T10:26:40;6.30;;;3.50;;
72087;SDS011;59961;50.232;8.616;2023-09-08T10:29:07;6.50;;;3.70;;
72087;SDS011;59961;50.232;8.616;2023-09-08T10:31:33;6.80;;;3.20;;
72087;SDS011;59961;50.232;8.616;2023-09-08T10:33:58;7.47;;;4.27;;
72087;SDS011;59961;50.232;8.616;2023-09-08T10:36:24;7.25;;;3.70;;
72087;SDS011;59961;50.232;8.616;2023-09-08T10:38:49;6.53;;;3.67;;
72087;SDS011;59961;50.232;8.616;2023-09-08T10:43:45;7.30;;;3.35;;
72087;SDS011;59961;50.232;8.616;2023-09-08T10:46:12;7.68;;;3.92;;
72087;SDS011;59961;50.232;8.616;2023-09-08T10:48:46;6.33;;;3.77;;
72087;SDS011;59961;50.232;8.616;2023-09-08T10:51:14;6.67;;;3.77;;
72087;SDS011;59961;50.232;8.616;2023-09-08T10:53:40;8.02;;;3.78;;
72087;SDS011;59961;50.232;8.616;2023-09-08T10:56:05;7.60;;;3.57;;
72087;SDS011;59961;50.232;8.616;2023-09-08T10:58:34;7.30;;;4.03;;
72087;SDS011;59961;50.232;8.616;2023-09-08T11:01:01;7.50;;;3.60;;
72087;SDS011;59961;50.232;8.616;2023-09-08T11:06:04;8.13;;;4.43;;
72087;SDS011;59961;50.232;8.616;2023-09-08T11:08:29;5.90;;;3.60;;
72087;SDS011;59961;50.232;8.616;2023-09-08T11:10:55;6.32;;;3.42;;
72087;SDS011;59961;50.232;8.616;2023-09-08T11:13:20;7.47;;;3.80;;
72087;SDS011;59961;50.232;8.616;2023-09-08T11:15:46;6.90;;;3.60;;
72087;SDS011;59961;50.232;8.616;2023-09-08T11:18:12;7.97;;;4.10;;
72087;SDS011;59961;50.232;8.616;2023-09-08T11:20:37;6.90;;;4.13;;
72087;SDS011;59961;50.232;8.616;2023-09-08T11:23:03;6.13;;;3.97;;
72087;SDS011;59961;50.232;8.616;2023-09-08T11:25:29;8.70;;;4.18;;
72087;SDS011;59961;50.232;8.616;2023-09-08T11:27:55;10.55;;;3.85;;
72087;SDS011;59961;50.232;8.616;2023-09-08T11:30:21;7.87;;;3.83;;
72087;SDS011;59961;50.232;8.616;2023-09-08T11:32:47;7.47;;;3.80;;
72087;SDS011;59961;50.232;8.616;2023-09-08T11:35:12;7.90;;;4.32;;
72087;SDS011;59961;50.232;8.616;2023-09-08T11:37:39;8.38;;;3.88;;
72087;SDS011;59961;50.232;8.616;2023-09-08T11:40:05;9.95;;;3.97;;
72087;SDS011;59961;50.232;8.616;2023-09-08T11:42:34;7.05;;;4.03;;
72087;SDS011;59961;50.232;8.616;2023-09-08T11:44:59;7.53;;;3.97;;
72087;SDS011;59961;50.232;8.616;2023-09-08T11:47:25;7.30;;;3.97;;
72087;SDS011;59961;50.232;8.616;2023-09-08T11:49:52;6.25;;;4.07;;
72087;SDS011;59961;50.232;8.616;2023-09-08T11:52:17;8.95;;;4.03;;
72087;SDS011;59961;50.232;8.616;2023-09-08T11:54:42;6.43;;;4.00;;
72087;SDS011;59961;50.232;8.616;2023-09-08T11:57:07;9.97;;;4.00;;
72087;SDS011;59961;50.232;8.616;2023-09-08T11:59:34;7.77;;;4.13;;
72087;SDS011;59961;50.232;8.616;2023-09-08T12:01:59;7.80;;;3.60;;
72087;SDS011;59961;50.232;8.616;2023-09-08T12:04:25;7.63;;;4.40;;
72087;SDS011;59961;50.232;8.616;2023-09-08T12:06:51;7.07;;;4.20;;
72087;SDS011;59961;50.232;8.616;2023-09-08T12:09:16;9.93;;;4.30;;
72087;SDS011;59961;50.232;8.616;2023-09-08T12:11:42;8.17;;;4.40;;
72087;SDS011;59961;50.232;8.616;2023-09-08T12:14:08;9.45;;;4.40;;
72087;SDS011;59961;50.232;8.616;2023-09-08T12:16:34;7.28;;;3.70;;
72087;SDS011;59961;50.232;8.616;2023-09-08T12:19:00;6.87;;;3.80;;
72087;SDS011;59961;50.232;8.616;2023-09-08T12:21:25;6.75;;;4.13;;
72087;SDS011;59961;50.232;8.616;2023-09-08T12:23:51;7.73;;;4.27;;
72087;SDS011;59961;50.232;8.616;2023-09-08T12:26:16;7.22;;;3.95;;
72087;SDS011;59961;50.232;8.616;2023-09-08T12:28:42;7.23;;;4.03;;
72087;SDS011;59961;50.232;8.616;2023-09-08T12:31:07;9.20;;;4.47;;
72087;SDS011;59961;50.232;8.616;2023-09-08T12:33:32;8.73;;;4.28;;
72087;SDS011;59961;50.232;8.616;2023-09-08T12:35:57;6.78;;;3.75;;
72087;SDS011;59961;50.232;8.616;2023-09-08T12:38:22;6.80;;;3.85;;
72087;SDS011;59961;50.232;8.616;2023-09-08T12:40:48;6.13;;;3.70;;
72087;SDS011;59961;50.232;8.616;2023-09-08T12:43:13;7.60;;;4.47;;
72087;SDS011;59961;50.232;8.616;2023-09-08T12:45:38;6.37;;;3.80;;
72087;SDS011;59961;50.232;8.616;2023-09-08T12:48:04;8.30;;;4.00;;
72087;SDS011;59961;50.232;8.616;2023-09-08T12:50:31;7.68;;;4.45;;
72087;SDS011;59961;50.232;8.616;2023-09-08T12:52:56;7.70;;;4.60;;
72087;SDS011;59961;50.232;8.616;2023-09-08T12:55:22;6.90;;;3.90;;
72087;SDS011;59961;50.232;8.616;2023-09-08T12:57:47;6.93;;;3.50;;
72087;SDS011;59961;50.232;8.616;2023-09-08T13:00:13;7.55;;;3.65;;
72087;SDS011;59961;50.232;8.616;2023-09-08T13:02:39;6.90;;;4.20;;
72087;SDS011;59961;50.232;8.616;2023-09-08T13:05:04;6.13;;;3.60;;
72087;SDS011;59961;50.232;8.616;2023-09-08T13:07:30;5.87;;;3.93;;
72087;SDS011;59961;50.232;8.616;2023-09-08T13:09:55;6.10;;;3.60;;
72087;SDS011;59961;50.232;8.616;2023-09-08T13:12:20;8.13;;;3.80;;
72087;SDS011;59961;50.232;8.616;2023-09-08T13:14:45;5.83;;;3.70;;
72087;SDS011;59961;50.232;8.616;2023-09-08T13:17:11;6.43;;;3.73;;
72087;SDS011;59961;50.232;8.616;2023-09-08T13:19:36;8.05;;;3.97;;
72087;SDS011;59961;50.232;8.616;2023-09-08T13:22:03;6.07;;;3.63;;
72087;SDS011;59961;50.232;8.616;2023-09-08T13:24:28;6.40;;;3.63;;
72087;SDS011;59961;50.232;8.616;2023-09-08T13:26:53;7.27;;;4.23;;
72087;SDS011;59961;50.232;8.616;2023-09-08T13:29:18;9.02;;;3.70;;
72087;SDS011;59961;50.232;8.616;2023-09-08T13:31:43;6.22;;;3.85;;
72087;SDS011;59961;50.232;8.616;2023-09-08T13:34:09;6.37;;;3.50;;
72087;SDS011;59961;50.232;8.616;2023-09-08T13:36:34;7.25;;;3.60;;
72087;SDS011;59961;50.232;8.616;2023-09-08T13:38:59;7.70;;;3.58;;
72087;SDS011;59961;50.232;8.616;2023-09-08T13:41:25;6.23;;;3.50;;
72087;SDS011;59961;50.232;8.616;2023-09-08T13:43:50;6.03;;;3.53;;
72087;SDS011;59961;50.232;8.616;2023-09-08T13:46:15;6.35;;;3.45;;
72087;SDS011;59961;50.232;8.616;2023-09-08T13:48:40;6.90;;;3.50;;
72087;SDS011;59961;50.232;8.616;2023-09-08T13:51:05;5.93;;;3.50;;
72087;SDS011;59961;50.232;8.616;2023-09-08T13:53:30;7.00;;;3.50;;
72087;SDS011;59961;50.232;8.616;2023-09-08T13:55:57;6.83;;;3.80;;
72087;SDS011;59961;50.232;8.616;2023-09-08T13:58:22;9.98;;;3.60;;
72087;SDS011;59961;50.232;8.616;2023-09-08T14:00:48;7.97;;;3.60;;
72087;SDS011;59961;50.232;8.616;2023-09-08T14:03:18;6.53;;;3.38;;
72087;SDS011;59961;50.232;8.616;2023-09-08T14:05:44;6.03;;;3.38;;
72087;SDS011;59961;50.232;8.616;2023-09-08T14:08:09;6.60;;;3.33;;
72087;SDS011;59961;50.232;8.616;2023-09-08T14:10:34;7.40;;;3.55;;
72087;SDS011;59961;50.232;8.616;2023-09-08T14:13:00;5.43;;;3.50;;
72087;SDS011;59961;50.232;8.616;2023-09-08T14:15:25;9.65;;;3.95;;
72087;SDS011;59961;50.232;8.616;2023-09-08T14:17:50;8.10;;;3.90;;
72087;SDS011;59961;50.232;8.616;2023-09-08T14:20:15;5.63;;;3.33;;
72087;SDS011;59961;50.232;8.616;2023-09-08T14:22:40;6.23;;;3.40;;
72087;SDS011;59961;50.232;8.616;2023-09-08T14:25:05;7.37;;;3.30;;
72087;SDS011;59961;50.232;8.616;2023-09-08T14:27:31;7.22;;;3.60;;
72087;SDS011;59961;50.232;8.616;2023-09-08T14:29:56;7.37;;;3.50;;
72087;SDS011;59961;50.232;8.616;2023-09-08T14:32:21;7.70;;;3.77;;
72087;SDS011;59961;50.232;8.616;2023-09-08T14:34:46;5.60;;;2.90;;
72087;SDS011;59961;50.232;8.616;2023-09-08T14:37:13;5.93;;;3.37;;
72087;SDS011;59961;50.232;8.616;2023-09-08T14:39:38;5.72;;;3.25;;
72087;SDS011;59961;50.232;8.616;2023-09-08T14:42:03;5.83;;;3.07;;
72087;SDS011;59961;50.232;8.616;2023-09-08T14:44:28;7.10;;;3.80;;
72087;SDS011;59961;50.232;8.616;2023-09-08T14:46:54;6.17;;;3.20;;
72087;SDS011;59961;50.232;8.616;2023-09-08T14:49:19;6.77;;;3.50;;
72087;SDS011;59961;50.232;8.616;2023-09-08T14:51:44;7.10;;;3.20;;
72087;SDS011;59961;50.232;8.616;2023-09-08T14:54:09;7.03;;;3.50;;
72087;SDS011;59961;50.232;8.616;2023-09-08T14:56:34;7.43;;;3.20;;
72087;SDS011;59961;50.232;8.616;2023-09-08T14:58:59;6.43;;;3.05;;
72087;SDS011;59961;50.232;8.616;2023-09-08T15:01:25;8.33;;;3.40;;
72087;SDS011;59961;50.232;8.616;2023-09-08T15:03:50;8.05;;;3.03;;
72087;SDS011;59961;50.232;8.616;2023-09-08T15:06:16;6.17;;;3.60;;
72087;SDS011;59961;50.232;8.616;2023-09-08T15:08:41;6.00;;;3.60;;
72087;SDS011;59961;50.232;8.616;2023-09-08T15:11:08;7.35;;;3.58;;
72087;SDS011;59961;50.232;8.616;2023-09-08T15:13:33;7.20;;;3.90;;
72087;SDS011;59961;50.232;8.616;2023-09-08T15:15:58;6.17;;;3.67;;
72087;SDS011;59961;50.232;8.616;2023-09-08T15:18:24;6.22;;;3.50;;
72087;SDS011;59961;50.232;8.616;2023-09-08T15:20:52;6.15;;;3.15;;
72087;SDS011;59961;50.232;8.616;2023-09-08T15:23:17;6.27;;;3.40;;
72087;SDS011;59961;50.232;8.616;2023-09-08T15:25:42;7.13;;;3.93;;
72087;SDS011;59961;50.232;8.616;2023-09-08T15:28:14;5.90;;;3.40;;
72087;SDS011;59961;50.232;8.616;2023-09-08T15:30:39;6.38;;;3.28;;
72087;SDS011;59961;50.232;8.616;2023-09-08T15:33:05;5.67;;;3.20;;
72087;SDS011;59961;50.232;8.616;2023-09-08T15:35:31;7.13;;;3.10;;
72087;SDS011;59961;50.232;8.616;2023-09-08T15:37:56;6.25;;;3.00;;
72087;SDS011;59961;50.232;8.616;2023-09-08T15:40:21;5.57;;;2.70;;
72087;SDS011;59961;50.232;8.616;2023-09-08T15:42:47;6.13;;;3.33;;
72087;SDS011;59961;50.232;8.616;2023-09-08T15:45:14;6.77;;;3.53;;
72087;SDS011;59961;50.232;8.616;2023-09-08T15:47:39;4.83;;;3.10;;
72087;SDS011;59961;50.232;8.616;2023-09-08T15:50:04;5.90;;;3.05;;
72087;SDS011;59961;50.232;8.616;2023-09-08T15:52:33;7.40;;;3.97;;
72087;SDS011;59961;50.232;8.616;2023-09-08T15:54:58;5.75;;;3.58;;
72087;SDS011;59961;50.232;8.616;2023-09-08T15:57:24;5.70;;;3.35;;
72087;SDS011;59961;50.232;8.616;2023-09-08T15:59:49;5.87;;;3.47;;
72087;SDS011;59961;50.232;8.616;2023-09-08T16:02:15;5.20;;;3.47;;
72087;SDS011;59961;50.232;8.616;2023-09-08T16:04:40;5.43;;;3.37;;
72087;SDS011;59961;50.232;8.616;2023-09-08T16:07:05;7.53;;;3.40;;
72087;SDS011;59961;50.232;8.616;2023-09-08T16:09:30;5.77;;;3.50;;
72087;SDS011;59961;50.232;8.616;2023-09-08T16:11:55;7.20;;;3.42;;
72087;SDS011;59961;50.232;8.616;2023-09-08T16:14:20;5.93;;;3.00;;
72087;SDS011;59961;50.232;8.616;2023-09-08T16:16:45;5.20;;;3.27;;
72087;SDS011;59961;50.232;8.616;2023-09-08T16:19:10;6.37;;;3.43;;
72087;SDS011;59961;50.232;8.616;2023-09-08T16:21:36;5.85;;;2.97;;
72087;SDS011;59961;50.232;8.616;2023-09-08T16:24:01;4.73;;;3.20;;
72087;SDS011;59961;50.232;8.616;2023-09-08T16:26:26;6.03;;;3.07;;
72087;SDS011;59961;50.232;8.616;2023-09-08T16:28:51;4.77;;;2.80;;
72087;SDS011;59961;50.232;8.616;2023-09-08T16:31:16;6.40;;;3.20;;
72087;SDS011;59961;50.232;8.616;2023-09-08T16:33:42;5.25;;;3.05;;
72087;SDS011;59961;50.232;8.616;2023-09-08T16:36:07;7.97;;;3.57;;
72087;SDS011;59961;50.232;8.616;2023-09-08T16:38:33;5.35;;;3.08;;
72087;SDS011;59961;50.232;8.616;2023-09-08T16:40:59;5.30;;;3.08;;
72087;SDS011;59961;50.232;8.616;2023-09-08T16:43:24;5.47;;;3.40;;
72087;SDS011;59961;50.232;8.616;2023-09-08T16:45:50;5.70;;;3.37;;
72087;SDS011;59961;50.232;8.616;2023-09-08T16:48:15;5.80;;;3.13;;
72087;SDS011;59961;50.232;8.616;2023-09-08T16:50:40;4.93;;;2.85;;
72087;SDS011;59961;50.232;8.616;2023-09-08T16:53:06;7.20;;;3.40;;
72087;SDS011;59961;50.232;8.616;2023-09-08T16:55:31;6.37;;;3.50;;
72087;SDS011;59961;50.232;8.616;2023-09-08T16:57:56;6.57;;;3.40;;
72087;SDS011;59961;50.232;8.616;2023-09-08T17:00:22;6.60;;;3.70;;
72087;SDS011;59961;50.232;8.616;2023-09-08T17:02:47;7.17;;;3.20;;
72087;SDS011;59961;50.232;8.616;2023-09-08T17:05:12;5.50;;;3.40;;
72087;SDS011;59961;50.232;8.616;2023-09-08T17:07:42;6.97;;;3.53;;
72087;SDS011;59961;50.232;8.616;2023-09-08T17:10:08;9.70;;;4.22;;
72087;SDS011;59961;50.232;8.616;2023-09-08T17:12:33;9.03;;;3.90;;
72087;SDS011;59961;50.232;8.616;2023-09-08T17:14:58;8.83;;;3.70;;
72087;SDS011;59961;50.232;8.616;2023-09-08T17:17:23;5.97;;;3.70;;
72087;SDS011;59961;50.232;8.616;2023-09-08T17:19:49;8.83;;;3.63;;
72087;SDS011;59961;50.232;8.616;2023-09-08T17:22:14;7.20;;;3.70;;
72087;SDS011;59961;50.232;8.616;2023-09-08T17:24:39;5.37;;;3.40;;
72087;SDS011;59961;50.232;8.616;2023-09-08T17:27:04;6.17;;;3.53;;
72087;SDS011;59961;50.232;8.616;2023-09-08T17:29:29;7.03;;;4.30;;
72087;SDS011;59961;50.232;8.616;2023-09-08T17:31:56;6.35;;;4.13;;
72087;SDS011;59961;50.232;8.616;2023-09-08T17:34:21;10.60;;;4.60;;
72087;SDS011;59961;50.232;8.616;2023-09-08T17:36:46;8.40;;;4.07;;
72087;SDS011;59961;50.232;8.616;2023-09-08T17:39:12;8.00;;;3.97;;
72087;SDS011;59961;50.232;8.616;2023-09-08T17:41:37;6.20;;;3.80;;
72087;SDS011;59961;50.232;8.616;2023-09-08T17:44:02;7.70;;;4.00;;
72087;SDS011;59961;50.232;8.616;2023-09-08T17:46:27;10.00;;;4.37;;
72087;SDS011;59961;50.232;8.616;2023-09-08T17:48:52;8.00;;;4.57;;
72087;SDS011;59961;50.232;8.616;2023-09-08T17:51:17;7.87;;;4.20;;
72087;SDS011;59961;50.232;8.616;2023-09-08T17:53:43;7.88;;;4.43;;
72087;SDS011;59961;50.232;8.616;2023-09-08T17:56:08;8.95;;;4.28;;
72087;SDS011;59961;50.232;8.616;2023-09-08T17:58:33;9.20;;;4.05;;
72087;SDS011;59961;50.232;8.616;2023-09-08T18:00:58;7.70;;;4.53;;
72087;SDS011;59961;50.232;8.616;2023-09-08T18:03:23;7.50;;;4.53;;
72087;SDS011;59961;50.232;8.616;2023-09-08T18:05:48;11.20;;;4.70;;
72087;SDS011;59961;50.232;8.616;2023-09-08T18:08:13;7.07;;;4.57;;
72087;SDS011;59961;50.232;8.616;2023-09-08T18:10:39;7.82;;;4.22;;
72087;SDS011;59961;50.232;8.616;2023-09-08T18:13:04;14.07;;;4.70;;
72087;SDS011;59961;50.232;8.616;2023-09-08T18:15:29;7.15;;;4.38;;
72087;SDS011;59961;50.232;8.616;2023-09-08T18:17:54;7.93;;;4.00;;
72087;SDS011;59961;50.232;8.616;2023-09-08T18:20:19;7.95;;;4.95;;
72087;SDS011;59961;50.232;8.616;2023-09-08T18:22:45;8.00;;;4.50;;
72087;SDS011;59961;50.232;8.616;2023-09-08T18:25:10;7.88;;;4.50;;
72087;SDS011;59961;50.232;8.616;2023-09-08T18:27:35;7.35;;;4.53;;
72087;SDS011;59961;50.232;8.616;2023-09-08T18:30:00;9.60;;;4.22;;
72087;SDS011;59961;50.232;8.616;2023-09-08T18:32:25;7.85;;;4.28;;
72087;SDS011;59961;50.232;8.616;2023-09-08T18:34:50;9.67;;;4.67;;
72087;SDS011;59961;50.232;8.616;2023-09-08T18:37:15;6.93;;;4.10;;
72087;SDS011;59961;50.232;8.616;2023-09-08T18:39:41;6.97;;;4.20;;
72087;SDS011;59961;50.232;8.616;2023-09-08T18:42:06;7.13;;;4.80;;
72087;SDS011;59961;50.232;8.616;2023-09-08T18:44:31;8.25;;;4.60;;
72087;SDS011;59961;50.232;8.616;2023-09-08T18:47:00;8.45;;;4.20;;
72087;SDS011;59961;50.232;8.616;2023-09-08T18:49:25;8.47;;;4.93;;
72087;SDS011;59961;50.232;8.616;2023-09-08T18:51:50;11.48;;;4.45;;
72087;SDS011;59961;50.232;8.616;2023-09-08T18:54:15;13.20;;;4.13;;
72087;SDS011;59961;50.232;8.616;2023-09-08T18:56:40;8.38;;;4.70;;
72087;SDS011;59961;50.232;8.616;2023-09-08T18:59:05;9.20;;;4.95;;
72087;SDS011;59961;50.232;8.616;2023-09-08T19:01:31;9.40;;;5.00;;
72087;SDS011;59961;50.232;8.616;2023-09-08T19:03:56;9.93;;;4.20;;
72087;SDS011;59961;50.232;8.616;2023-09-08T19:06:21;8.43;;;4.50;;
72087;SDS011;59961;50.232;8.616;2023-09-08T19:08:46;8.37;;;4.30;;
72087;SDS011;59961;50.232;8.616;2023-09-08T19:11:11;11.27;;;4.90;;
72087;SDS011;59961;50.232;8.616;2023-09-08T19:13:36;9.60;;;4.73;;
72087;SDS011;59961;50.232;8.616;2023-09-08T19:16:01;11.00;;;5.63;;